sensor_id;sensor_type;location;lat;lon;timestamp;P1;durP1;ratioP1;P2;durP2;ratioP2
8594;SDS011;4335;48.860;9.198;2024-01-30T00:01:26;13.10;;;8.97;;
8594;SDS011;4335;48.860;9.198;2024-01-30T00:03:54;14.20;;;8.30;;
8594;SDS011;4335;48.860;9.198;2024-01-30T00:06:26;13.77;;;9.23;;
8594;SDS011;4335;48.860;9.198;2024-01-30T00:08:54;14.53;;;9.23;;
8594;SDS011;4335;48.860;9.198;2024-01-30T00:11:22;15.73;;;9.77;;
8594;SDS011;4335;48.860;9.198;2024-01-30T00:13:55;10.93;;;9.47;;
8594;SDS011;4335;48.860;9.198;2024-01-30T00:16:29;13.10;;;9.77;;
8594;SDS011;4335;48.860;9.198;2024-01-30T00:19:00;15.67;;;9.87;;
8594;SDS011;4335;48.860;9.198;2024-01-30T00:21:28;15.17;;;9.37;;
8594;SDS011;4335;48.860;9.198;2024-01-30T00:23:59;13.60;;;9.77;;
8594;SDS011;4335;48.860;9.198;2024-01-30T00:26:29;17.87;;;9.73;;
8594;SDS011;4335;48.860;9.198;2024-01-30T00:29:01;19.40;;;10.87;;
8594;SDS011;4335;48.860;9.198;2024-01-30T00:31:29;18.87;;;10.63;;
8594;SDS011;4335;48.860;9.198;2024-01-30T00:33:56;14.53;;;10.47;;
8594;SDS011;4335;48.860;9.198;2024-01-30T00:36:26;17.10;;;11.13;;
8594;SDS011;4335;48.860;9.198;2024-01-30T00:38:55;16.03;;;11.37;;
8594;SDS011;4335;48.860;9.198;2024-01-30T00:41:22;15.93;;;10.33;;
8594;SDS011;4335;48.860;9.198;2024-01-30T00:43:50;17.60;;;10.70;;
8594;SDS011;4335;48.860;9.198;2024-01-30T00:46:22;13.23;;;10.97;;
8594;SDS011;4335;48.860;9.198;2024-01-30T00:48:49;16.80;;;10.90;;
8594;SDS011;4335;48.860;9.198;2024-01-30T00:51:19;16.67;;;11.73;;
8594;SDS011;4335;48.860;9.198;2024-01-30T00:53:59;14.90;;;11.47;;
8594;SDS011;4335;48.860;9.198;2024-01-30T00:56:27;15.00;;;11.13;;
8594;SDS011;4335;48.860;9.198;2024-01-30T00:58:57;15.33;;;10.83;;
8594;SDS011;4335;48.860;9.198;2024-01-30T01:01:33;17.53;;;10.77;;
8594;SDS011;4335;48.860;9.198;2024-01-30T01:04:04;16.10;;;9.70;;
8594;SDS011;4335;48.860;9.198;2024-01-30T01:06:32;13.13;;;10.50;;
8594;SDS011;4335;48.860;9.198;2024-01-30T01:09:00;15.17;;;10.80;;
8594;SDS011;4335;48.860;9.198;2024-01-30T01:11:30;16.23;;;10.20;;
8594;SDS011;4335;48.860;9.198;2024-01-30T01:14:00;15.70;;;10.87;;
8594;SDS011;4335;48.860;9.198;2024-01-30T01:16:28;15.13;;;10.47;;
8594;SDS011;4335;48.860;9.198;2024-01-30T01:18:57;13.57;;;10.60;;
8594;SDS011;4335;48.860;9.198;2024-01-30T01:21:25;18.57;;;11.10;;
8594;SDS011;4335;48.860;9.198;2024-01-30T01:23:59;14.00;;;9.93;;
8594;SDS011;4335;48.860;9.198;2024-01-30T01:26:29;14.70;;;10.10;;
8594;SDS011;4335;48.860;9.198;2024-01-30T01:29:00;14.77;;;10.77;;
8594;SDS011;4335;48.860;9.198;2024-01-30T01:31:29;15.03;;;10.97;;
8594;SDS011;4335;48.860;9.198;2024-01-30T01:33:58;13.23;;;9.83;;
8594;SDS011;4335;48.860;9.198;2024-01-30T01:36:28;16.40;;;9.93;;
8594;SDS011;4335;48.860;9.198;2024-01-30T01:38:56;16.10;;;11.17;;
8594;SDS011;4335;48.860;9.198;2024-01-30T01:41:37;14.73;;;9.53;;
8594;SDS011;4335;48.860;9.198;2024-01-30T01:44:04;14.03;;;9.67;;
8594;SDS011;4335;48.860;9.198;2024-01-30T01:46:32;12.67;;;10.33;;
8594;SDS011;4335;48.860;9.198;2024-01-30T01:49:07;13.63;;;10.20;;
8594;SDS011;4335;48.860;9.198;2024-01-30T01:51:36;16.37;;;9.93;;
8594;SDS011;4335;48.860;9.198;2024-01-30T01:54:12;12.57;;;10.00;;
8594;SDS011;4335;48.860;9.198;2024-01-30T01:56:56;12.87;;;10.17;;
8594;SDS011;4335;48.860;9.198;2024-01-30T01:59:26;14.60;;;10.23;;
8594;SDS011;4335;48.860;9.198;2024-01-30T02:01:54;13.07;;;10.20;;
8594;SDS011;4335;48.860;9.198;2024-01-30T02:04:24;13.57;;;10.23;;
8594;SDS011;4335;48.860;9.198;2024-01-30T02:06:52;15.50;;;10.27;;
8594;SDS011;4335;48.860;9.198;2024-01-30T02:09:22;15.10;;;10.13;;
8594;SDS011;4335;48.860;9.198;2024-01-30T02:11:59;13.83;;;10.80;;
8594;SDS011;4335;48.860;9.198;2024-01-30T02:14:43;15.83;;;10.00;;
8594;SDS011;4335;48.860;9.198;2024-01-30T02:17:15;13.20;;;10.00;;
8594;SDS011;4335;48.860;9.198;2024-01-30T02:19:46;15.00;;;9.53;;
8594;SDS011;4335;48.860;9.198;2024-01-30T02:22:15;17.13;;;10.53;;
8594;SDS011;4335;48.860;9.198;2024-01-30T02:24:43;16.50;;;10.47;;
8594;SDS011;4335;48.860;9.198;2024-01-30T02:27:10;12.47;;;10.03;;
8594;SDS011;4335;48.860;9.198;2024-01-30T02:29:38;16.33;;;10.90;;
8594;SDS011;4335;48.860;9.198;2024-01-30T02:32:06;13.00;;;10.23;;
8594;SDS011;4335;48.860;9.198;2024-01-30T02:34:34;12.57;;;10.17;;
8594;SDS011;4335;48.860;9.198;2024-01-30T02:37:01;13.03;;;10.47;;
8594;SDS011;4335;48.860;9.198;2024-01-30T02:39:33;13.30;;;9.43;;
8594;SDS011;4335;48.860;9.198;2024-01-30T02:42:04;14.03;;;11.03;;
8594;SDS011;4335;48.860;9.198;2024-01-30T02:44:34;11.73;;;9.80;;
8594;SDS011;4335;48.860;9.198;2024-01-30T02:47:03;17.63;;;9.60;;
8594;SDS011;4335;48.860;9.198;2024-01-30T02:49:31;11.97;;;9.97;;
8594;SDS011;4335;48.860;9.198;2024-01-30T02:51:58;12.23;;;9.77;;
8594;SDS011;4335;48.860;9.198;2024-01-30T02:54:29;13.77;;;9.40;;
8594;SDS011;4335;48.860;9.198;2024-01-30T02:57:01;12.30;;;9.17;;
8594;SDS011;4335;48.860;9.198;2024-01-30T02:59:28;13.07;;;9.27;;
8594;SDS011;4335;48.860;9.198;2024-01-30T03:01:58;11.57;;;9.23;;
8594;SDS011;4335;48.860;9.198;2024-01-30T03:04:28;12.50;;;9.07;;
8594;SDS011;4335;48.860;9.198;2024-01-30T03:06:56;12.47;;;9.23;;
8594;SDS011;4335;48.860;9.198;2024-01-30T03:09:42;13.50;;;8.83;;
8594;SDS011;4335;48.860;9.198;2024-01-30T03:12:11;11.73;;;8.93;;
8594;SDS011;4335;48.860;9.198;2024-01-30T03:14:38;14.77;;;10.43;;
8594;SDS011;4335;48.860;9.198;2024-01-30T03:17:12;9.47;;;8.00;;
8594;SDS011;4335;48.860;9.198;2024-01-30T03:19:42;8.93;;;8.03;;
8594;SDS011;4335;48.860;9.198;2024-01-30T03:22:13;12.23;;;9.57;;
8594;SDS011;4335;48.860;9.198;2024-01-30T03:24:46;11.67;;;9.20;;
8594;SDS011;4335;48.860;9.198;2024-01-30T03:27:15;11.60;;;8.77;;
8594;SDS011;4335;48.860;9.198;2024-01-30T03:29:42;14.03;;;8.30;;
8594;SDS011;4335;48.860;9.198;2024-01-30T03:32:13;10.43;;;8.60;;
8594;SDS011;4335;48.860;9.198;2024-01-30T03:34:43;9.17;;;8.07;;
8594;SDS011;4335;48.860;9.198;2024-01-30T03:37:13;11.40;;;9.13;;
8594;SDS011;4335;48.860;9.198;2024-01-30T03:39:41;10.00;;;8.40;;
8594;SDS011;4335;48.860;9.198;2024-01-30T03:42:11;11.93;;;8.00;;
8594;SDS011;4335;48.860;9.198;2024-01-30T03:44:42;11.30;;;7.90;;
8594;SDS011;4335;48.860;9.198;2024-01-30T03:47:15;10.00;;;7.77;;
8594;SDS011;4335;48.860;9.198;2024-01-30T03:49:49;13.83;;;8.93;;
8594;SDS011;4335;48.860;9.198;2024-01-30T03:52:25;12.70;;;8.67;;
8594;SDS011;4335;48.860;9.198;2024-01-30T03:54:53;11.03;;;8.33;;
8594;SDS011;4335;48.860;9.198;2024-01-30T03:57:20;10.67;;;8.17;;
8594;SDS011;4335;48.860;9.198;2024-01-30T03:59:52;10.80;;;8.53;;
8594;SDS011;4335;48.860;9.198;2024-01-30T04:02:23;12.03;;;8.27;;
8594;SDS011;4335;48.860;9.198;2024-01-30T04:04:51;11.83;;;9.07;;
8594;SDS011;4335;48.860;9.198;2024-01-30T04:07:18;13.03;;;8.57;;
8594;SDS011;4335;48.860;9.198;2024-01-30T04:09:46;11.60;;;9.13;;
8594;SDS011;4335;48.860;9.198;2024-01-30T04:12:16;13.10;;;9.03;;
8594;SDS011;4335;48.860;9.198;2024-01-30T04:14:44;9.60;;;8.40;;
8594;SDS011;4335;48.860;9.198;2024-01-30T04:17:16;11.23;;;9.37;;
8594;SDS011;4335;48.860;9.198;2024-01-30T04:19:46;14.83;;;10.23;;
8594;SDS011;4335;48.860;9.198;2024-01-30T04:22:16;11.77;;;9.43;;
8594;SDS011;4335;48.860;9.198;2024-01-30T04:24:43;11.80;;;9.70;;
8594;SDS011;4335;48.860;9.198;2024-01-30T04:27:11;12.77;;;8.97;;
8594;SDS011;4335;48.860;9.198;2024-01-30T04:29:49;12.50;;;8.97;;
8594;SDS011;4335;48.860;9.198;2024-01-30T04:32:17;12.57;;;10.60;;
8594;SDS011;4335;48.860;9.198;2024-01-30T04:34:45;12.17;;;8.87;;
8594;SDS011;4335;48.860;9.198;2024-01-30T04:37:15;12.53;;;8.97;;
8594;SDS011;4335;48.860;9.198;2024-01-30T04:39:48;11.20;;;8.50;;
8594;SDS011;4335;48.860;9.198;2024-01-30T04:42:22;10.43;;;8.90;;
8594;SDS011;4335;48.860;9.198;2024-01-30T04:44:49;11.93;;;7.93;;
8594;SDS011;4335;48.860;9.198;2024-01-30T04:47:22;12.43;;;9.10;;
8594;SDS011;4335;48.860;9.198;2024-01-30T04:49:53;12.70;;;8.70;;
8594;SDS011;4335;48.860;9.198;2024-01-30T04:52:20;12.27;;;8.23;;
8594;SDS011;4335;48.860;9.198;2024-01-30T04:54:53;13.00;;;8.50;;
8594;SDS011;4335;48.860;9.198;2024-01-30T04:57:21;10.77;;;8.17;;
8594;SDS011;4335;48.860;9.198;2024-01-30T04:59:48;10.40;;;8.73;;
8594;SDS011;4335;48.860;9.198;2024-01-30T05:02:15;12.50;;;8.63;;
8594;SDS011;4335;48.860;9.198;2024-01-30T05:04:47;12.50;;;9.43;;
8594;SDS011;4335;48.860;9.198;2024-01-30T05:07:15;11.33;;;8.57;;
8594;SDS011;4335;48.860;9.198;2024-01-30T05:09:42;11.57;;;8.73;;
8594;SDS011;4335;48.860;9.198;2024-01-30T05:12:12;14.00;;;9.43;;
8594;SDS011;4335;48.860;9.198;2024-01-30T05:14:39;11.73;;;9.00;;
8594;SDS011;4335;48.860;9.198;2024-01-30T05:17:06;11.63;;;9.57;;
8594;SDS011;4335;48.860;9.198;2024-01-30T05:19:38;8.80;;;7.90;;
8594;SDS011;4335;48.860;9.198;2024-01-30T05:22:13;9.00;;;7.90;;
8594;SDS011;4335;48.860;9.198;2024-01-30T05:24:43;12.13;;;9.53;;
8594;SDS011;4335;48.860;9.198;2024-01-30T05:27:10;13.43;;;9.57;;
8594;SDS011;4335;48.860;9.198;2024-01-30T05:29:39;9.17;;;8.23;;
8594;SDS011;4335;48.860;9.198;2024-01-30T05:32:06;11.67;;;8.63;;
8594;SDS011;4335;48.860;9.198;2024-01-30T05:34:43;11.03;;;8.30;;
8594;SDS011;4335;48.860;9.198;2024-01-30T05:37:10;10.60;;;8.47;;
8594;SDS011;4335;48.860;9.198;2024-01-30T05:39:42;10.67;;;8.57;;
8594;SDS011;4335;48.860;9.198;2024-01-30T05:42:12;11.97;;;7.80;;
8594;SDS011;4335;48.860;9.198;2024-01-30T05:44:48;10.73;;;7.70;;
8594;SDS011;4335;48.860;9.198;2024-01-30T05:47:19;11.40;;;7.33;;
8594;SDS011;4335;48.860;9.198;2024-01-30T05:49:49;10.43;;;8.23;;
8594;SDS011;4335;48.860;9.198;2024-01-30T05:52:30;8.20;;;7.33;;
8594;SDS011;4335;48.860;9.198;2024-01-30T05:55:02;10.30;;;7.70;;
8594;SDS011;4335;48.860;9.198;2024-01-30T05:57:30;9.73;;;8.47;;
8594;SDS011;4335;48.860;9.198;2024-01-30T05:59:57;10.90;;;7.90;;
8594;SDS011;4335;48.860;9.198;2024-01-30T06:02:24;10.27;;;7.83;;
8594;SDS011;4335;48.860;9.198;2024-01-30T06:04:52;8.93;;;7.60;;
8594;SDS011;4335;48.860;9.198;2024-01-30T06:07:19;9.50;;;7.83;;
8594;SDS011;4335;48.860;9.198;2024-01-30T06:09:51;9.67;;;7.67;;
8594;SDS011;4335;48.860;9.198;2024-01-30T06:12:19;12.90;;;8.60;;
8594;SDS011;4335;48.860;9.198;2024-01-30T06:14:46;13.10;;;8.53;;
8594;SDS011;4335;48.860;9.198;2024-01-30T06:17:19;9.63;;;8.20;;
8594;SDS011;4335;48.860;9.198;2024-01-30T06:19:46;8.97;;;7.47;;
8594;SDS011;4335;48.860;9.198;2024-01-30T06:22:25;9.23;;;7.50;;
8594;SDS011;4335;48.860;9.198;2024-01-30T06:24:53;9.70;;;8.07;;
8594;SDS011;4335;48.860;9.198;2024-01-30T06:27:21;9.40;;;8.00;;
8594;SDS011;4335;48.860;9.198;2024-01-30T06:29:51;10.77;;;8.30;;
8594;SDS011;4335;48.860;9.198;2024-01-30T06:32:22;14.50;;;9.70;;
8594;SDS011;4335;48.860;9.198;2024-01-30T06:34:49;12.33;;;8.87;;
8594;SDS011;4335;48.860;9.198;2024-01-30T06:37:20;11.43;;;9.00;;
8594;SDS011;4335;48.860;9.198;2024-01-30T06:39:47;11.80;;;8.63;;
8594;SDS011;4335;48.860;9.198;2024-01-30T06:42:26;10.33;;;8.47;;
8594;SDS011;4335;48.860;9.198;2024-01-30T06:44:54;12.00;;;8.83;;
8594;SDS011;4335;48.860;9.198;2024-01-30T06:47:30;11.33;;;8.60;;
8594;SDS011;4335;48.860;9.198;2024-01-30T06:49:58;10.27;;;8.10;;
8594;SDS011;4335;48.860;9.198;2024-01-30T06:52:25;11.20;;;8.73;;
8594;SDS011;4335;48.860;9.198;2024-01-30T06:54:52;11.13;;;9.10;;
8594;SDS011;4335;48.860;9.198;2024-01-30T06:57:24;14.50;;;9.27;;
8594;SDS011;4335;48.860;9.198;2024-01-30T06:59:56;11.70;;;7.93;;
8594;SDS011;4335;48.860;9.198;2024-01-30T07:02:23;11.17;;;9.20;;
8594;SDS011;4335;48.860;9.198;2024-01-30T07:04:50;10.50;;;7.90;;
8594;SDS011;4335;48.860;9.198;2024-01-30T07:07:20;11.67;;;9.47;;
8594;SDS011;4335;48.860;9.198;2024-01-30T07:09:51;10.53;;;9.27;;
8594;SDS011;4335;48.860;9.198;2024-01-30T07:12:21;13.93;;;10.13;;
8594;SDS011;4335;48.860;9.198;2024-01-30T07:14:53;11.47;;;8.40;;
8594;SDS011;4335;48.860;9.198;2024-01-30T07:17:24;15.80;;;10.10;;
8594;SDS011;4335;48.860;9.198;2024-01-30T07:19:51;13.43;;;8.53;;
8594;SDS011;4335;48.860;9.198;2024-01-30T07:22:22;12.60;;;9.00;;
8594;SDS011;4335;48.860;9.198;2024-01-30T07:24:52;13.53;;;9.20;;
8594;SDS011;4335;48.860;9.198;2024-01-30T07:27:23;12.10;;;8.53;;
8594;SDS011;4335;48.860;9.198;2024-01-30T07:29:51;12.07;;;8.27;;
8594;SDS011;4335;48.860;9.198;2024-01-30T07:32:28;10.73;;;8.33;;
8594;SDS011;4335;48.860;9.198;2024-01-30T07:34:55;16.20;;;9.57;;
8594;SDS011;4335;48.860;9.198;2024-01-30T07:37:25;14.57;;;9.93;;
8594;SDS011;4335;48.860;9.198;2024-01-30T07:39:56;11.67;;;9.03;;
8594;SDS011;4335;48.860;9.198;2024-01-30T07:42:24;13.27;;;9.60;;
8594;SDS011;4335;48.860;9.198;2024-01-30T07:44:53;11.77;;;9.37;;
8594;SDS011;4335;48.860;9.198;2024-01-30T07:47:20;13.93;;;9.67;;
8594;SDS011;4335;48.860;9.198;2024-01-30T07:49:48;12.70;;;9.03;;
8594;SDS011;4335;48.860;9.198;2024-01-30T07:52:15;12.90;;;8.37;;
8594;SDS011;4335;48.860;9.198;2024-01-30T07:54:49;12.13;;;9.33;;
8594;SDS011;4335;48.860;9.198;2024-01-30T07:57:16;10.13;;;8.47;;
8594;SDS011;4335;48.860;9.198;2024-01-30T07:59:54;14.17;;;10.30;;
8594;SDS011;4335;48.860;9.198;2024-01-30T08:02:29;15.40;;;9.90;;
8594;SDS011;4335;48.860;9.198;2024-01-30T08:04:59;12.63;;;10.33;;
8594;SDS011;4335;48.860;9.198;2024-01-30T08:07:26;11.37;;;9.07;;
8594;SDS011;4335;48.860;9.198;2024-01-30T08:09:55;12.60;;;9.43;;
8594;SDS011;4335;48.860;9.198;2024-01-30T08:12:22;12.43;;;10.00;;
8594;SDS011;4335;48.860;9.198;2024-01-30T08:14:52;11.60;;;9.53;;
8594;SDS011;4335;48.860;9.198;2024-01-30T08:17:21;11.60;;;8.73;;
8594;SDS011;4335;48.860;9.198;2024-01-30T08:19:49;17.27;;;10.13;;
8594;SDS011;4335;48.860;9.198;2024-01-30T08:22:16;12.80;;;9.33;;
8594;SDS011;4335;48.860;9.198;2024-01-30T08:24:43;12.97;;;10.70;;
8594;SDS011;4335;48.860;9.198;2024-01-30T08:27:16;14.27;;;10.90;;
8594;SDS011;4335;48.860;9.198;2024-01-30T08:29:50;13.10;;;10.80;;
8594;SDS011;4335;48.860;9.198;2024-01-30T08:32:19;10.37;;;8.97;;
8594;SDS011;4335;48.860;9.198;2024-01-30T08:34:46;9.57;;;8.37;;
8594;SDS011;4335;48.860;9.198;2024-01-30T08:37:17;12.97;;;8.97;;
8594;SDS011;4335;48.860;9.198;2024-01-30T08:39:44;11.57;;;8.47;;
8594;SDS011;4335;48.860;9.198;2024-01-30T08:42:20;10.90;;;8.47;;
8594;SDS011;4335;48.860;9.198;2024-01-30T08:44:48;9.17;;;7.73;;
8594;SDS011;4335;48.860;9.198;2024-01-30T08:47:16;14.23;;;8.20;;
8594;SDS011;4335;48.860;9.198;2024-01-30T08:49:51;12.83;;;8.73;;
8594;SDS011;4335;48.860;9.198;2024-01-30T08:52:21;14.87;;;10.13;;
8594;SDS011;4335;48.860;9.198;2024-01-30T08:54:49;11.53;;;8.60;;
8594;SDS011;4335;48.860;9.198;2024-01-30T08:57:22;12.27;;;9.07;;
8594;SDS011;4335;48.860;9.198;2024-01-30T08:59:49;10.80;;;8.53;;
8594;SDS011;4335;48.860;9.198;2024-01-30T09:02:21;10.17;;;7.97;;
8594;SDS011;4335;48.860;9.198;2024-01-30T09:04:48;12.47;;;8.30;;
8594;SDS011;4335;48.860;9.198;2024-01-30T09:07:16;10.70;;;8.90;;
8594;SDS011;4335;48.860;9.198;2024-01-30T09:09:43;10.53;;;8.77;;
8594;SDS011;4335;48.860;9.198;2024-01-30T09:12:10;12.90;;;8.23;;
8594;SDS011;4335;48.860;9.198;2024-01-30T09:14:38;12.20;;;9.50;;
8594;SDS011;4335;48.860;9.198;2024-01-30T09:17:06;10.57;;;9.10;;
8594;SDS011;4335;48.860;9.198;2024-01-30T09:19:41;12.77;;;9.13;;
8594;SDS011;4335;48.860;9.198;2024-01-30T09:22:08;13.50;;;9.73;;
8594;SDS011;4335;48.860;9.198;2024-01-30T09:24:35;11.93;;;8.93;;
8594;SDS011;4335;48.860;9.198;2024-01-30T09:27:06;13.03;;;9.23;;
8594;SDS011;4335;48.860;9.198;2024-01-30T09:29:37;11.57;;;8.33;;
8594;SDS011;4335;48.860;9.198;2024-01-30T09:32:07;11.90;;;10.00;;
8594;SDS011;4335;48.860;9.198;2024-01-30T09:34:38;12.93;;;8.60;;
8594;SDS011;4335;48.860;9.198;2024-01-30T09:37:07;15.23;;;10.40;;
8594;SDS011;4335;48.860;9.198;2024-01-30T09:39:35;11.77;;;9.57;;
8594;SDS011;4335;48.860;9.198;2024-01-30T09:42:17;11.30;;;8.57;;
8594;SDS011;4335;48.860;9.198;2024-01-30T09:44:51;9.57;;;8.17;;
8594;SDS011;4335;48.860;9.198;2024-01-30T09:47:22;17.83;;;9.60;;
8594;SDS011;4335;48.860;9.198;2024-01-30T09:49:53;13.93;;;10.23;;
8594;SDS011;4335;48.860;9.198;2024-01-30T09:52:27;15.13;;;10.47;;
8594;SDS011;4335;48.860;9.198;2024-01-30T09:55:02;13.83;;;10.43;;
8594;SDS011;4335;48.860;9.198;2024-01-30T09:57:30;11.93;;;9.83;;
8594;SDS011;4335;48.860;9.198;2024-01-30T09:59:57;11.30;;;8.37;;
8594;SDS011;4335;48.860;9.198;2024-01-30T10:02:31;12.90;;;9.40;;
8594;SDS011;4335;48.860;9.198;2024-01-30T10:05:01;9.40;;;8.37;;
8594;SDS011;4335;48.860;9.198;2024-01-30T10:07:30;11.80;;;8.53;;
8594;SDS011;4335;48.860;9.198;2024-01-30T10:09:58;11.97;;;8.83;;
8594;SDS011;4335;48.860;9.198;2024-01-30T10:12:25;19.33;;;12.60;;
8594;SDS011;4335;48.860;9.198;2024-01-30T10:14:55;15.77;;;12.00;;
8594;SDS011;4335;48.860;9.198;2024-01-30T10:17:26;13.83;;;10.20;;
8594;SDS011;4335;48.860;9.198;2024-01-30T10:19:54;13.77;;;11.90;;
8594;SDS011;4335;48.860;9.198;2024-01-30T10:22:24;13.07;;;10.10;;
8594;SDS011;4335;48.860;9.198;2024-01-30T10:24:56;12.30;;;9.63;;
8594;SDS011;4335;48.860;9.198;2024-01-30T10:27:24;11.53;;;8.57;;
8594;SDS011;4335;48.860;9.198;2024-01-30T10:29:52;15.77;;;9.80;;
8594;SDS011;4335;48.860;9.198;2024-01-30T10:32:20;11.33;;;8.50;;
8594;SDS011;4335;48.860;9.198;2024-01-30T10:34:47;12.67;;;9.57;;
8594;SDS011;4335;48.860;9.198;2024-01-30T10:37:15;13.20;;;9.53;;
8594;SDS011;4335;48.860;9.198;2024-01-30T10:39:44;12.30;;;9.67;;
8594;SDS011;4335;48.860;9.198;2024-01-30T10:42:18;15.30;;;8.97;;
8594;SDS011;4335;48.860;9.198;2024-01-30T10:44:48;14.13;;;9.60;;
8594;SDS011;4335;48.860;9.198;2024-01-30T10:47:25;10.70;;;9.30;;
8594;SDS011;4335;48.860;9.198;2024-01-30T10:49:55;10.73;;;8.30;;
8594;SDS011;4335;48.860;9.198;2024-01-30T10:52:23;11.30;;;9.30;;
8594;SDS011;4335;48.860;9.198;2024-01-30T10:54:52;11.30;;;8.23;;
8594;SDS011;4335;48.860;9.198;2024-01-30T10:57:22;15.27;;;8.43;;
8594;SDS011;4335;48.860;9.198;2024-01-30T10:59:51;9.63;;;8.50;;
8594;SDS011;4335;48.860;9.198;2024-01-30T11:02:23;13.20;;;9.27;;
8594;SDS011;4335;48.860;9.198;2024-01-30T11:04:54;10.97;;;7.73;;
8594;SDS011;4335;48.860;9.198;2024-01-30T11:07:26;12.23;;;8.97;;
8594;SDS011;4335;48.860;9.198;2024-01-30T11:09:59;12.07;;;9.37;;
8594;SDS011;4335;48.860;9.198;2024-01-30T11:12:29;14.97;;;10.73;;
8594;SDS011;4335;48.860;9.198;2024-01-30T11:15:02;10.90;;;8.27;;
8594;SDS011;4335;48.860;9.198;2024-01-30T11:17:51;11.83;;;8.50;;
8594;SDS011;4335;48.860;9.198;2024-01-30T11:20:20;13.27;;;9.30;;
8594;SDS011;4335;48.860;9.198;2024-01-30T11:22:57;9.23;;;8.20;;
8594;SDS011;4335;48.860;9.198;2024-01-30T11:25:27;15.47;;;9.70;;
8594;SDS011;4335;48.860;9.198;2024-01-30T11:28:05;12.53;;;8.80;;
8594;SDS011;4335;48.860;9.198;2024-01-30T11:30:41;11.63;;;8.70;;
8594;SDS011;4335;48.860;9.198;2024-01-30T11:33:09;12.90;;;7.93;;
8594;SDS011;4335;48.860;9.198;2024-01-30T11:35:41;13.27;;;8.97;;
8594;SDS011;4335;48.860;9.198;2024-01-30T11:38:15;11.53;;;8.43;;
8594;SDS011;4335;48.860;9.198;2024-01-30T11:40:45;11.87;;;8.17;;
8594;SDS011;4335;48.860;9.198;2024-01-30T11:43:15;15.23;;;9.73;;
8594;SDS011;4335;48.860;9.198;2024-01-30T11:45:44;12.20;;;8.87;;
8594;SDS011;4335;48.860;9.198;2024-01-30T11:48:12;12.03;;;8.67;;
8594;SDS011;4335;48.860;9.198;2024-01-30T11:50:40;13.33;;;8.43;;
8594;SDS011;4335;48.860;9.198;2024-01-30T11:53:10;12.10;;;9.27;;
8594;SDS011;4335;48.860;9.198;2024-01-30T11:55:40;14.43;;;10.37;;
8594;SDS011;4335;48.860;9.198;2024-01-30T11:58:08;13.17;;;8.73;;
8594;SDS011;4335;48.860;9.198;2024-01-30T12:00:42;14.17;;;8.63;;
8594;SDS011;4335;48.860;9.198;2024-01-30T12:03:09;10.90;;;8.60;;
8594;SDS011;4335;48.860;9.198;2024-01-30T12:05:38;13.93;;;9.23;;
8594;SDS011;4335;48.860;9.198;2024-01-30T12:08:14;11.27;;;8.07;;
8594;SDS011;4335;48.860;9.198;2024-01-30T12:10:42;10.60;;;8.23;;
8594;SDS011;4335;48.860;9.198;2024-01-30T12:13:09;13.10;;;8.97;;
8594;SDS011;4335;48.860;9.198;2024-01-30T12:15:39;12.00;;;8.60;;
8594;SDS011;4335;48.860;9.198;2024-01-30T12:18:12;10.87;;;8.00;;
8594;SDS011;4335;48.860;9.198;2024-01-30T12:20:39;14.70;;;8.93;;
8594;SDS011;4335;48.860;9.198;2024-01-30T12:23:06;13.80;;;8.60;;
8594;SDS011;4335;48.860;9.198;2024-01-30T12:25:34;13.93;;;8.63;;
8594;SDS011;4335;48.860;9.198;2024-01-30T12:28:01;9.37;;;8.33;;
8594;SDS011;4335;48.860;9.198;2024-01-30T12:30:29;12.23;;;8.63;;
8594;SDS011;4335;48.860;9.198;2024-01-30T12:32:58;9.57;;;8.07;;
8594;SDS011;4335;48.860;9.198;2024-01-30T12:35:26;11.37;;;8.67;;
8594;SDS011;4335;48.860;9.198;2024-01-30T12:37:54;14.87;;;9.63;;
8594;SDS011;4335;48.860;9.198;2024-01-30T12:40:22;12.43;;;8.53;;
8594;SDS011;4335;48.860;9.198;2024-01-30T12:42:51;9.87;;;8.30;;
8594;SDS011;4335;48.860;9.198;2024-01-30T12:45:26;13.47;;;8.30;;
8594;SDS011;4335;48.860;9.198;2024-01-30T12:47:56;8.80;;;7.90;;
8594;SDS011;4335;48.860;9.198;2024-01-30T12:50:31;13.17;;;9.47;;
8594;SDS011;4335;48.860;9.198;2024-01-30T12:53:04;15.63;;;9.20;;
8594;SDS011;4335;48.860;9.198;2024-01-30T12:55:32;18.43;;;10.17;;
8594;SDS011;4335;48.860;9.198;2024-01-30T12:57:59;14.73;;;9.93;;
8594;SDS011;4335;48.860;9.198;2024-01-30T13:00:26;13.40;;;9.50;;
8594;SDS011;4335;48.860;9.198;2024-01-30T13:02:54;11.80;;;9.53;;
8594;SDS011;4335;48.860;9.198;2024-01-30T13:05:23;12.90;;;8.30;;
8594;SDS011;4335;48.860;9.198;2024-01-30T13:07:50;9.40;;;7.57;;
8594;SDS011;4335;48.860;9.198;2024-01-30T13:10:18;10.20;;;7.47;;
8594;SDS011;4335;48.860;9.198;2024-01-30T13:12:46;11.13;;;7.27;;
8594;SDS011;4335;48.860;9.198;2024-01-30T13:15:16;10.97;;;7.63;;
8594;SDS011;4335;48.860;9.198;2024-01-30T13:17:44;9.60;;;7.17;;
8594;SDS011;4335;48.860;9.198;2024-01-30T13:20:13;9.67;;;7.37;;
8594;SDS011;4335;48.860;9.198;2024-01-30T13:22:46;8.17;;;6.90;;
8594;SDS011;4335;48.860;9.198;2024-01-30T13:25:14;9.77;;;7.30;;
8594;SDS011;4335;48.860;9.198;2024-01-30T13:27:45;12.30;;;7.60;;
8594;SDS011;4335;48.860;9.198;2024-01-30T13:30:12;11.93;;;7.80;;
8594;SDS011;4335;48.860;9.198;2024-01-30T13:32:40;9.10;;;6.50;;
8594;SDS011;4335;48.860;9.198;2024-01-30T13:35:09;9.90;;;7.37;;
8594;SDS011;4335;48.860;9.198;2024-01-30T13:37:37;11.13;;;7.00;;
8594;SDS011;4335;48.860;9.198;2024-01-30T13:40:12;8.27;;;6.83;;
8594;SDS011;4335;48.860;9.198;2024-01-30T13:42:40;10.10;;;7.47;;
8594;SDS011;4335;48.860;9.198;2024-01-30T13:45:08;10.03;;;7.53;;
8594;SDS011;4335;48.860;9.198;2024-01-30T13:47:36;10.37;;;7.40;;
8594;SDS011;4335;48.860;9.198;2024-01-30T13:50:04;10.97;;;8.10;;
8594;SDS011;4335;48.860;9.198;2024-01-30T13:52:33;14.60;;;9.27;;
8594;SDS011;4335;48.860;9.198;2024-01-30T13:55:00;12.63;;;8.37;;
8594;SDS011;4335;48.860;9.198;2024-01-30T13:57:29;13.70;;;9.27;;
8594;SDS011;4335;48.860;9.198;2024-01-30T14:00:00;14.17;;;9.63;;
8594;SDS011;4335;48.860;9.198;2024-01-30T14:02:28;11.40;;;9.37;;
8594;SDS011;4335;48.860;9.198;2024-01-30T14:04:55;10.23;;;8.80;;
8594;SDS011;4335;48.860;9.198;2024-01-30T14:07:25;13.13;;;9.77;;
8594;SDS011;4335;48.860;9.198;2024-01-30T14:09:53;15.23;;;8.87;;
8594;SDS011;4335;48.860;9.198;2024-01-30T14:12:23;10.80;;;8.80;;
8594;SDS011;4335;48.860;9.198;2024-01-30T14:14:52;10.33;;;8.17;;
8594;SDS011;4335;48.860;9.198;2024-01-30T14:17:25;15.63;;;9.50;;
8594;SDS011;4335;48.860;9.198;2024-01-30T14:19:53;15.63;;;10.53;;
8594;SDS011;4335;48.860;9.198;2024-01-30T14:22:20;12.27;;;9.00;;
8594;SDS011;4335;48.860;9.198;2024-01-30T14:24:51;13.50;;;9.70;;
8594;SDS011;4335;48.860;9.198;2024-01-30T14:27:18;11.97;;;9.83;;
8594;SDS011;4335;48.860;9.198;2024-01-30T14:29:55;9.63;;;8.50;;
8594;SDS011;4335;48.860;9.198;2024-01-30T14:32:26;12.60;;;8.77;;
8594;SDS011;4335;48.860;9.198;2024-01-30T14:34:53;9.60;;;8.37;;
8594;SDS011;4335;48.860;9.198;2024-01-30T14:37:26;8.33;;;7.23;;
8594;SDS011;4335;48.860;9.198;2024-01-30T14:39:55;9.77;;;8.73;;
8594;SDS011;4335;48.860;9.198;2024-01-30T14:42:28;12.07;;;8.67;;
8594;SDS011;4335;48.860;9.198;2024-01-30T14:45:05;11.37;;;8.50;;
8594;SDS011;4335;48.860;9.198;2024-01-30T14:47:33;10.23;;;7.87;;
8594;SDS011;4335;48.860;9.198;2024-01-30T14:50:01;10.37;;;8.33;;
8594;SDS011;4335;48.860;9.198;2024-01-30T14:52:31;18.33;;;8.73;;
8594;SDS011;4335;48.860;9.198;2024-01-30T14:54:59;15.93;;;12.00;;
8594;SDS011;4335;48.860;9.198;2024-01-30T14:57:30;12.47;;;9.93;;
8594;SDS011;4335;48.860;9.198;2024-01-30T15:00:00;14.87;;;9.20;;
8594;SDS011;4335;48.860;9.198;2024-01-30T15:02:29;13.77;;;8.47;;
8594;SDS011;4335;48.860;9.198;2024-01-30T15:05:05;11.97;;;9.17;;
8594;SDS011;4335;48.860;9.198;2024-01-30T15:07:35;14.10;;;9.43;;
8594;SDS011;4335;48.860;9.198;2024-01-30T15:10:06;12.70;;;9.57;;
8594;SDS011;4335;48.860;9.198;2024-01-30T15:12:34;12.53;;;8.53;;
8594;SDS011;4335;48.860;9.198;2024-01-30T15:15:06;12.63;;;8.90;;
8594;SDS011;4335;48.860;9.198;2024-01-30T15:17:35;12.30;;;9.17;;